sensor_id;sensor_type;location;lat;lon;timestamp;P1;durP1;ratioP1;P2;durP2;ratioP2
30697;SDS011;17448;47.200;10.902;2023-12-28T00:01:39;4.90;;;2.75;;
30697;SDS011;17448;47.200;10.902;2023-12-28T00:04:06;5.75;;;2.85;;
30697;SDS011;17448;47.200;10.902;2023-12-28T00:06:32;4.30;;;2.63;;
30697;SDS011;17448;47.200;10.902;2023-12-28T00:08:59;5.55;;;2.85;;
30697;SDS011;17448;47.200;10.902;2023-12-28T00:11:28;5.78;;;3.15;;
30697;SDS011;17448;47.200;10.902;2023-12-28T00:13:54;6.38;;;2.72;;
30697;SDS011;17448;47.200;10.902;2023-12-28T00:16:20;3.35;;;2.47;;
30697;SDS011;17448;47.200;10.902;2023-12-28T00:18:46;3.72;;;2.30;;
30697;SDS011;17448;47.200;10.902;2023-12-28T00:21:13;4.38;;;2.50;;
30697;SDS011;17448;47.200;10.902;2023-12-28T00:23:39;4.00;;;2.65;;
30697;SDS011;17448;47.200;10.902;2023-12-28T00:26:05;4.57;;;2.88;;
30697;SDS011;17448;47.200;10.902;2023-12-28T00:28:31;3.55;;;2.63;;
30697;SDS011;17448;47.200;10.902;2023-12-28T00:30:58;4.18;;;2.45;;
30697;SDS011;17448;47.200;10.902;2023-12-28T00:33:24;4.30;;;2.25;;
30697;SDS011;17448;47.200;10.902;2023-12-28T00:35:50;3.58;;;2.10;;
30697;SDS011;17448;47.200;10.902;2023-12-28T00:38:16;4.95;;;2.75;;
30697;SDS011;17448;47.200;10.902;2023-12-28T00:40:43;3.42;;;2.28;;
30697;SDS011;17448;47.200;10.902;2023-12-28T00:43:09;3.30;;;2.47;;
30697;SDS011;17448;47.200;10.902;2023-12-28T00:45:36;4.07;;;2.03;;
30697;SDS011;17448;47.200;10.902;2023-12-28T00:48:02;3.80;;;2.30;;
30697;SDS011;17448;47.200;10.902;2023-12-28T00:50:30;4.28;;;2.60;;
30697;SDS011;17448;47.200;10.902;2023-12-28T00:52:57;2.63;;;2.30;;
30697;SDS011;17448;47.200;10.902;2023-12-28T00:55:23;2.78;;;2.05;;
30697;SDS011;17448;47.200;10.902;2023-12-28T00:57:50;5.07;;;2.30;;
30697;SDS011;17448;47.200;10.902;2023-12-28T01:00:16;5.15;;;2.65;;
30697;SDS011;17448;47.200;10.902;2023-12-28T01:02:42;4.72;;;2.65;;
30697;SDS011;17448;47.200;10.902;2023-12-28T01:05:12;3.92;;;2.47;;
30697;SDS011;17448;47.200;10.902;2023-12-28T01:07:38;3.30;;;2.55;;
30697;SDS011;17448;47.200;10.902;2023-12-28T01:10:04;4.57;;;2.45;;
30697;SDS011;17448;47.200;10.902;2023-12-28T01:12:31;2.92;;;2.30;;
30697;SDS011;17448;47.200;10.902;2023-12-28T01:14:58;4.40;;;2.20;;
30697;SDS011;17448;47.200;10.902;2023-12-28T01:17:25;3.75;;;2.40;;
30697;SDS011;17448;47.200;10.902;2023-12-28T01:19:51;3.45;;;2.33;;
30697;SDS011;17448;47.200;10.902;2023-12-28T01:22:17;4.25;;;2.10;;
30697;SDS011;17448;47.200;10.902;2023-12-28T01:24:45;4.18;;;2.55;;
30697;SDS011;17448;47.200;10.902;2023-12-28T01:27:12;4.40;;;2.47;;
30697;SDS011;17448;47.200;10.902;2023-12-28T01:29:38;5.57;;;2.38;;
30697;SDS011;17448;47.200;10.902;2023-12-28T01:32:04;4.63;;;1.95;;
30697;SDS011;17448;47.200;10.902;2023-12-28T01:34:31;3.95;;;2.22;;
30697;SDS011;17448;47.200;10.902;2023-12-28T01:36:57;4.90;;;2.20;;
30697;SDS011;17448;47.200;10.902;2023-12-28T01:39:23;3.85;;;2.25;;
30697;SDS011;17448;47.200;10.902;2023-12-28T01:41:49;3.92;;;2.40;;
30697;SDS011;17448;47.200;10.902;2023-12-28T01:44:15;3.97;;;2.40;;
30697;SDS011;17448;47.200;10.902;2023-12-28T01:46:42;3.50;;;2.40;;
30697;SDS011;17448;47.200;10.902;2023-12-28T01:49:08;3.90;;;2.30;;
30697;SDS011;17448;47.200;10.902;2023-12-28T01:51:34;4.65;;;2.00;;
30697;SDS011;17448;47.200;10.902;2023-12-28T01:54:01;6.75;;;2.30;;
30697;SDS011;17448;47.200;10.902;2023-12-28T01:56:28;2.65;;;2.10;;
30697;SDS011;17448;47.200;10.902;2023-12-28T01:58:54;2.92;;;2.15;;
30697;SDS011;17448;47.200;10.902;2023-12-28T02:01:20;2.83;;;2.15;;
30697;SDS011;17448;47.200;10.902;2023-12-28T02:03:48;2.55;;;2.00;;
30697;SDS011;17448;47.200;10.902;2023-12-28T02:06:14;3.22;;;2.00;;
30697;SDS011;17448;47.200;10.902;2023-12-28T02:08:41;3.70;;;1.77;;
30697;SDS011;17448;47.200;10.902;2023-12-28T02:11:08;4.97;;;2.30;;
30697;SDS011;17448;47.200;10.902;2023-12-28T02:13:35;2.33;;;1.85;;
30697;SDS011;17448;47.200;10.902;2023-12-28T02:16:15;2.50;;;1.88;;
30697;SDS011;17448;47.200;10.902;2023-12-28T02:18:44;2.53;;;1.90;;
30697;SDS011;17448;47.200;10.902;2023-12-28T02:21:13;4.85;;;2.05;;
30697;SDS011;17448;47.200;10.902;2023-12-28T02:23:39;3.10;;;1.85;;
30697;SDS011;17448;47.200;10.902;2023-12-28T02:26:05;4.40;;;2.28;;
30697;SDS011;17448;47.200;10.902;2023-12-28T02:28:31;3.72;;;2.30;;
30697;SDS011;17448;47.200;10.902;2023-12-28T02:30:58;3.55;;;2.35;;
30697;SDS011;17448;47.200;10.902;2023-12-28T02:33:29;4.22;;;1.95;;
30697;SDS011;17448;47.200;10.902;2023-12-28T02:36:01;2.55;;;1.70;;
30697;SDS011;17448;47.200;10.902;2023-12-28T02:38:29;3.88;;;2.13;;
30697;SDS011;17448;47.200;10.902;2023-12-28T02:40:56;2.15;;;1.55;;
30697;SDS011;17448;47.200;10.902;2023-12-28T02:43:23;3.20;;;2.05;;
30697;SDS011;17448;47.200;10.902;2023-12-28T02:45:50;3.38;;;2.10;;
30697;SDS011;17448;47.200;10.902;2023-12-28T02:48:16;3.17;;;2.00;;
30697;SDS011;17448;47.200;10.902;2023-12-28T02:50:43;2.75;;;2.05;;
30697;SDS011;17448;47.200;10.902;2023-12-28T02:53:09;3.38;;;1.92;;
30697;SDS011;17448;47.200;10.902;2023-12-28T02:55:36;3.20;;;2.45;;
30697;SDS011;17448;47.200;10.902;2023-12-28T02:58:02;4.05;;;2.40;;
30697;SDS011;17448;47.200;10.902;2023-12-28T03:00:28;2.75;;;1.90;;
30697;SDS011;17448;47.200;10.902;2023-12-28T03:02:54;3.10;;;2.13;;
30697;SDS011;17448;47.200;10.902;2023-12-28T03:05:21;2.28;;;1.85;;
30697;SDS011;17448;47.200;10.902;2023-12-28T03:07:48;2.28;;;1.73;;
30697;SDS011;17448;47.200;10.902;2023-12-28T03:10:15;3.63;;;2.10;;
30697;SDS011;17448;47.200;10.902;2023-12-28T03:12:41;3.58;;;1.70;;
30697;SDS011;17448;47.200;10.902;2023-12-28T03:15:07;2.00;;;1.80;;
30697;SDS011;17448;47.200;10.902;2023-12-28T03:17:33;2.78;;;2.10;;
30697;SDS011;17448;47.200;10.902;2023-12-28T03:20:01;2.80;;;2.00;;
30697;SDS011;17448;47.200;10.902;2023-12-28T03:22:28;4.85;;;1.75;;
30697;SDS011;17448;47.200;10.902;2023-12-28T03:24:54;2.20;;;1.70;;
30697;SDS011;17448;47.200;10.902;2023-12-28T03:27:21;5.45;;;2.30;;
30697;SDS011;17448;47.200;10.902;2023-12-28T03:29:47;2.80;;;2.20;;
30697;SDS011;17448;47.200;10.902;2023-12-28T03:32:13;3.22;;;2.25;;
30697;SDS011;17448;47.200;10.902;2023-12-28T03:34:40;2.72;;;2.00;;
30697;SDS011;17448;47.200;10.902;2023-12-28T03:37:07;2.75;;;1.90;;
30697;SDS011;17448;47.200;10.902;2023-12-28T03:39:34;3.60;;;1.77;;
30697;SDS011;17448;47.200;10.902;2023-12-28T03:42:00;2.47;;;1.67;;
30697;SDS011;17448;47.200;10.902;2023-12-28T03:44:27;2.90;;;1.98;;
30697;SDS011;17448;47.200;10.902;2023-12-28T03:46:53;5.20;;;2.30;;
30697;SDS011;17448;47.200;10.902;2023-12-28T03:49:19;3.50;;;2.03;;
30697;SDS011;17448;47.200;10.902;2023-12-28T03:51:47;3.00;;;2.13;;
30697;SDS011;17448;47.200;10.902;2023-12-28T03:54:16;6.13;;;2.85;;
30697;SDS011;17448;47.200;10.902;2023-12-28T03:56:42;2.80;;;2.00;;
30697;SDS011;17448;47.200;10.902;2023-12-28T03:59:08;4.50;;;2.13;;
30697;SDS011;17448;47.200;10.902;2023-12-28T04:01:35;2.40;;;1.90;;
30697;SDS011;17448;47.200;10.902;2023-12-28T04:04:01;2.58;;;1.92;;
30697;SDS011;17448;47.200;10.902;2023-12-28T04:06:28;4.07;;;2.30;;
30697;SDS011;17448;47.200;10.902;2023-12-28T04:08:56;2.33;;;1.70;;
30697;SDS011;17448;47.200;10.902;2023-12-28T04:11:22;2.47;;;1.63;;
30697;SDS011;17448;47.200;10.902;2023-12-28T04:13:49;3.75;;;2.10;;
30697;SDS011;17448;47.200;10.902;2023-12-28T04:16:15;3.75;;;1.80;;
30697;SDS011;17448;47.200;10.902;2023-12-28T04:18:42;3.42;;;2.33;;
30697;SDS011;17448;47.200;10.902;2023-12-28T04:21:10;3.00;;;1.80;;
30697;SDS011;17448;47.200;10.902;2023-12-28T04:23:36;11.77;;;2.20;;
30697;SDS011;17448;47.200;10.902;2023-12-28T04:26:03;3.83;;;2.17;;
30697;SDS011;17448;47.200;10.902;2023-12-28T04:28:29;3.65;;;2.15;;
30697;SDS011;17448;47.200;10.902;2023-12-28T04:30:55;2.72;;;1.73;;
30697;SDS011;17448;47.200;10.902;2023-12-28T04:33:22;2.85;;;2.03;;
30697;SDS011;17448;47.200;10.902;2023-12-28T04:35:48;3.67;;;1.90;;
30697;SDS011;17448;47.200;10.902;2023-12-28T04:38:14;3.33;;;1.83;;
30697;SDS011;17448;47.200;10.902;2023-12-28T04:40:40;3.13;;;1.80;;
30697;SDS011;17448;47.200;10.902;2023-12-28T04:43:07;2.33;;;1.90;;
30697;SDS011;17448;47.200;10.902;2023-12-28T04:45:33;3.28;;;2.00;;
30697;SDS011;17448;47.200;10.902;2023-12-28T04:48:00;4.13;;;2.75;;
30697;SDS011;17448;47.200;10.902;2023-12-28T04:50:26;4.88;;;2.20;;
30697;SDS011;17448;47.200;10.902;2023-12-28T04:52:52;2.92;;;1.90;;
30697;SDS011;17448;47.200;10.902;2023-12-28T04:55:18;2.78;;;1.60;;
30697;SDS011;17448;47.200;10.902;2023-12-28T04:57:46;2.95;;;1.92;;
30697;SDS011;17448;47.200;10.902;2023-12-28T05:00:12;2.83;;;2.05;;
30697;SDS011;17448;47.200;10.902;2023-12-28T05:02:38;2.75;;;2.05;;
30697;SDS011;17448;47.200;10.902;2023-12-28T05:05:05;2.28;;;1.65;;
30697;SDS011;17448;47.200;10.902;2023-12-28T05:07:32;2.17;;;1.85;;
30697;SDS011;17448;47.200;10.902;2023-12-28T05:09:58;2.40;;;1.65;;
30697;SDS011;17448;47.200;10.902;2023-12-28T05:12:24;2.25;;;1.50;;
30697;SDS011;17448;47.200;10.902;2023-12-28T05:14:51;2.47;;;1.83;;
30697;SDS011;17448;47.200;10.902;2023-12-28T05:17:18;4.10;;;2.10;;
30697;SDS011;17448;47.200;10.902;2023-12-28T05:19:44;2.75;;;1.88;;
30697;SDS011;17448;47.200;10.902;2023-12-28T05:22:10;3.42;;;2.05;;
30697;SDS011;17448;47.200;10.902;2023-12-28T05:24:37;2.30;;;1.80;;
30697;SDS011;17448;47.200;10.902;2023-12-28T05:27:04;4.03;;;1.77;;
30697;SDS011;17448;47.200;10.902;2023-12-28T05:29:30;1.50;;;1.40;;
30697;SDS011;17448;47.200;10.902;2023-12-28T05:31:56;1.90;;;1.52;;
30697;SDS011;17448;47.200;10.902;2023-12-28T05:34:22;2.22;;;1.40;;
30697;SDS011;17448;47.200;10.902;2023-12-28T05:36:48;8.57;;;2.00;;
30697;SDS011;17448;47.200;10.902;2023-12-28T05:39:15;3.58;;;1.98;;
30697;SDS011;17448;47.200;10.902;2023-12-28T05:41:41;4.05;;;1.77;;
30697;SDS011;17448;47.200;10.902;2023-12-28T05:44:07;2.95;;;1.88;;
30697;SDS011;17448;47.200;10.902;2023-12-28T05:46:33;2.28;;;1.50;;
30697;SDS011;17448;47.200;10.902;2023-12-28T05:48:59;2.63;;;1.63;;
30697;SDS011;17448;47.200;10.902;2023-12-28T05:51:26;2.47;;;1.80;;
30697;SDS011;17448;47.200;10.902;2023-12-28T05:53:52;2.10;;;1.55;;
30697;SDS011;17448;47.200;10.902;2023-12-28T05:56:18;3.30;;;1.58;;
30697;SDS011;17448;47.200;10.902;2023-12-28T05:58:44;4.93;;;2.60;;
30697;SDS011;17448;47.200;10.902;2023-12-28T06:01:10;4.75;;;2.33;;
30697;SDS011;17448;47.200;10.902;2023-12-28T06:03:36;3.63;;;2.40;;
30697;SDS011;17448;47.200;10.902;2023-12-28T06:06:03;5.32;;;2.53;;
30697;SDS011;17448;47.200;10.902;2023-12-28T06:08:29;2.78;;;1.90;;
30697;SDS011;17448;47.200;10.902;2023-12-28T06:10:55;4.28;;;2.13;;
30697;SDS011;17448;47.200;10.902;2023-12-28T06:13:21;8.38;;;2.33;;
30697;SDS011;17448;47.200;10.902;2023-12-28T06:15:48;1.70;;;1.45;;
30697;SDS011;17448;47.200;10.902;2023-12-28T06:18:14;2.17;;;1.80;;
30697;SDS011;17448;47.200;10.902;2023-12-28T06:20:40;3.88;;;2.53;;
30697;SDS011;17448;47.200;10.902;2023-12-28T06:23:06;6.78;;;3.05;;
30697;SDS011;17448;47.200;10.902;2023-12-28T06:25:33;3.53;;;2.50;;
30697;SDS011;17448;47.200;10.902;2023-12-28T06:28:00;4.90;;;2.40;;
30697;SDS011;17448;47.200;10.902;2023-12-28T06:30:26;5.63;;;2.30;;
30697;SDS011;17448;47.200;10.902;2023-12-28T06:32:52;3.40;;;2.25;;
30697;SDS011;17448;47.200;10.902;2023-12-28T06:35:18;5.35;;;1.92;;
30697;SDS011;17448;47.200;10.902;2023-12-28T06:37:45;5.03;;;3.10;;
30697;SDS011;17448;47.200;10.902;2023-12-28T06:40:11;5.68;;;3.33;;
30697;SDS011;17448;47.200;10.902;2023-12-28T06:42:37;5.35;;;3.20;;
30697;SDS011;17448;47.200;10.902;2023-12-28T06:45:03;6.63;;;3.30;;
30697;SDS011;17448;47.200;10.902;2023-12-28T06:47:30;4.72;;;2.80;;
30697;SDS011;17448;47.200;10.902;2023-12-28T06:49:56;7.57;;;3.22;;
30697;SDS011;17448;47.200;10.902;2023-12-28T06:52:22;8.10;;;3.05;;
30697;SDS011;17448;47.200;10.902;2023-12-28T06:54:50;3.35;;;2.30;;
30697;SDS011;17448;47.200;10.902;2023-12-28T06:57:17;5.68;;;2.25;;
30697;SDS011;17448;47.200;10.902;2023-12-28T06:59:43;4.85;;;3.30;;
30697;SDS011;17448;47.200;10.902;2023-12-28T07:02:09;5.72;;;2.70;;
30697;SDS011;17448;47.200;10.902;2023-12-28T07:04:35;6.47;;;3.10;;
30697;SDS011;17448;47.200;10.902;2023-12-28T07:07:01;5.07;;;3.08;;
30697;SDS011;17448;47.200;10.902;2023-12-28T07:09:27;5.20;;;2.92;;
30697;SDS011;17448;47.200;10.902;2023-12-28T07:11:54;4.43;;;2.53;;
30697;SDS011;17448;47.200;10.902;2023-12-28T07:14:20;4.28;;;2.47;;
30697;SDS011;17448;47.200;10.902;2023-12-28T07:16:46;4.47;;;2.75;;
30697;SDS011;17448;47.200;10.902;2023-12-28T07:19:12;5.13;;;2.78;;
30697;SDS011;17448;47.200;10.902;2023-12-28T07:21:38;7.72;;;3.70;;
30697;SDS011;17448;47.200;10.902;2023-12-28T07:24:05;7.97;;;3.00;;
30697;SDS011;17448;47.200;10.902;2023-12-28T07:26:31;4.70;;;2.78;;
30697;SDS011;17448;47.200;10.902;2023-12-28T07:28:57;11.88;;;3.72;;
30697;SDS011;17448;47.200;10.902;2023-12-28T07:31:27;13.52;;;3.20;;
30697;SDS011;17448;47.200;10.902;2023-12-28T07:33:53;10.63;;;3.08;;
30697;SDS011;17448;47.200;10.902;2023-12-28T07:36:20;7.75;;;3.70;;
30697;SDS011;17448;47.200;10.902;2023-12-28T07:38:46;8.27;;;4.03;;
30697;SDS011;17448;47.200;10.902;2023-12-28T07:41:13;15.13;;;4.80;;
30697;SDS011;17448;47.200;10.902;2023-12-28T07:43:39;8.70;;;3.85;;
30697;SDS011;17448;47.200;10.902;2023-12-28T07:46:05;10.90;;;3.80;;
30697;SDS011;17448;47.200;10.902;2023-12-28T07:48:31;8.70;;;3.75;;
30697;SDS011;17448;47.200;10.902;2023-12-28T07:50:58;9.02;;;4.18;;
30697;SDS011;17448;47.200;10.902;2023-12-28T07:53:24;14.43;;;3.95;;
30697;SDS011;17448;47.200;10.902;2023-12-28T07:55:50;16.75;;;4.30;;
30697;SDS011;17448;47.200;10.902;2023-12-28T07:58:16;8.57;;;4.78;;
30697;SDS011;17448;47.200;10.902;2023-12-28T08:00:42;9.40;;;3.92;;
30697;SDS011;17448;47.200;10.902;2023-12-28T08:03:09;4.50;;;3.00;;
30697;SDS011;17448;47.200;10.902;2023-12-28T08:05:37;5.90;;;2.72;;
30697;SDS011;17448;47.200;10.902;2023-12-28T08:08:03;7.80;;;3.40;;
30697;SDS011;17448;47.200;10.902;2023-12-28T08:10:29;11.20;;;3.70;;
30697;SDS011;17448;47.200;10.902;2023-12-28T08:12:55;14.13;;;4.03;;
30697;SDS011;17448;47.200;10.902;2023-12-28T08:15:21;19.80;;;5.68;;
30697;SDS011;17448;47.200;10.902;2023-12-28T08:17:48;19.50;;;5.30;;
30697;SDS011;17448;47.200;10.902;2023-12-28T08:20:14;10.18;;;5.25;;
30697;SDS011;17448;47.200;10.902;2023-12-28T08:22:40;8.75;;;5.28;;
30697;SDS011;17448;47.200;10.902;2023-12-28T08:25:06;11.32;;;5.50;;
30697;SDS011;17448;47.200;10.902;2023-12-28T08:27:33;17.67;;;6.45;;
30697;SDS011;17448;47.200;10.902;2023-12-28T08:29:59;10.60;;;6.28;;
30697;SDS011;17448;47.200;10.902;2023-12-28T08:32:25;15.30;;;6.93;;
30697;SDS011;17448;47.200;10.902;2023-12-28T08:34:51;15.50;;;6.50;;
30697;SDS011;17448;47.200;10.902;2023-12-28T08:37:17;10.68;;;4.93;;
30697;SDS011;17448;47.200;10.902;2023-12-28T08:39:44;10.57;;;5.85;;
30697;SDS011;17448;47.200;10.902;2023-12-28T08:42:10;8.32;;;4.95;;
30697;SDS011;17448;47.200;10.902;2023-12-28T08:44:36;10.07;;;5.05;;
30697;SDS011;17448;47.200;10.902;2023-12-28T08:47:02;11.60;;;6.50;;
30697;SDS011;17448;47.200;10.902;2023-12-28T08:49:29;13.02;;;6.32;;
30697;SDS011;17448;47.200;10.902;2023-12-28T08:51:55;10.57;;;6.00;;
30697;SDS011;17448;47.200;10.902;2023-12-28T08:54:21;15.30;;;6.72;;
30697;SDS011;17448;47.200;10.902;2023-12-28T08:56:47;13.10;;;6.95;;
30697;SDS011;17448;47.200;10.902;2023-12-28T08:59:14;13.63;;;7.43;;
30697;SDS011;17448;47.200;10.902;2023-12-28T09:01:40;16.73;;;8.30;;
30697;SDS011;17448;47.200;10.902;2023-12-28T09:04:06;15.77;;;6.10;;
30697;SDS011;17448;47.200;10.902;2023-12-28T09:06:33;18.15;;;7.32;;
30697;SDS011;17448;47.200;10.902;2023-12-28T09:09:00;15.55;;;6.80;;
30697;SDS011;17448;47.200;10.902;2023-12-28T09:11:27;15.77;;;6.78;;
30697;SDS011;17448;47.200;10.902;2023-12-28T09:13:54;14.95;;;8.25;;
30697;SDS011;17448;47.200;10.902;2023-12-28T09:16:20;14.38;;;7.72;;
30697;SDS011;17448;47.200;10.902;2023-12-28T09:18:46;10.52;;;5.57;;
30697;SDS011;17448;47.200;10.902;2023-12-28T09:21:12;19.05;;;8.35;;
30697;SDS011;17448;47.200;10.902;2023-12-28T09:23:39;16.55;;;6.72;;
30697;SDS011;17448;47.200;10.902;2023-12-28T09:26:08;13.82;;;5.78;;
30697;SDS011;17448;47.200;10.902;2023-12-28T09:28:34;14.15;;;5.97;;
30697;SDS011;17448;47.200;10.902;2023-12-28T09:31:01;15.60;;;7.88;;
30697;SDS011;17448;47.200;10.902;2023-12-28T09:33:27;31.88;;;14.52;;
30697;SDS011;17448;47.200;10.902;2023-12-28T09:35:54;25.88;;;12.60;;
30697;SDS011;17448;47.200;10.902;2023-12-28T09:38:20;53.95;;;22.05;;
30697;SDS011;17448;47.200;10.902;2023-12-28T09:40:47;65.30;;;26.90;;
30697;SDS011;17448;47.200;10.902;2023-12-28T09:43:26;30.77;;;14.75;;
30697;SDS011;17448;47.200;10.902;2023-12-28T09:45:54;26.08;;;13.27;;
30697;SDS011;17448;47.200;10.902;2023-12-28T09:48:21;29.67;;;14.55;;
30697;SDS011;17448;47.200;10.902;2023-12-28T09:50:51;18.65;;;9.63;;
30697;SDS011;17448;47.200;10.902;2023-12-28T09:53:23;11.73;;;4.68;;
30697;SDS011;17448;47.200;10.902;2023-12-28T09:55:49;7.65;;;3.67;;
30697;SDS011;17448;47.200;10.902;2023-12-28T09:58:17;6.93;;;3.70;;
30697;SDS011;17448;47.200;10.902;2023-12-28T10:00:47;5.70;;;3.40;;
30697;SDS011;17448;47.200;10.902;2023-12-28T10:03:14;9.07;;;3.88;;
30697;SDS011;17448;47.200;10.902;2023-12-28T10:05:41;10.48;;;5.80;;
30697;SDS011;17448;47.200;10.902;2023-12-28T10:08:07;11.45;;;5.50;;
30697;SDS011;17448;47.200;10.902;2023-12-28T10:10:33;10.35;;;4.63;;
30697;SDS011;17448;47.200;10.902;2023-12-28T10:13:00;12.80;;;7.18;;
30697;SDS011;17448;47.200;10.902;2023-12-28T10:15:27;14.98;;;7.65;;
30697;SDS011;17448;47.200;10.902;2023-12-28T10:17:53;20.95;;;8.13;;
30697;SDS011;17448;47.200;10.902;2023-12-28T10:20:19;21.23;;;9.10;;
30697;SDS011;17448;47.200;10.902;2023-12-28T10:22:45;20.60;;;8.55;;
30697;SDS011;17448;47.200;10.902;2023-12-28T10:25:20;22.25;;;8.38;;
30697;SDS011;17448;47.200;10.902;2023-12-28T10:27:49;12.93;;;7.22;;
30697;SDS011;17448;47.200;10.902;2023-12-28T10:30:17;23.10;;;8.57;;
30697;SDS011;17448;47.200;10.902;2023-12-28T10:32:45;17.67;;;7.85;;
30697;SDS011;17448;47.200;10.902;2023-12-28T10:37:47;12.30;;;6.43;;
30697;SDS011;17448;47.200;10.902;2023-12-28T10:40:15;15.90;;;6.55;;
30697;SDS011;17448;47.200;10.902;2023-12-28T10:42:49;10.40;;;6.30;;
30697;SDS011;17448;47.200;10.902;2023-12-28T10:45:16;16.08;;;6.32;;
30697;SDS011;17448;47.200;10.902;2023-12-28T10:47:48;12.98;;;6.90;;
30697;SDS011;17448;47.200;10.902;2023-12-28T10:50:17;14.68;;;7.07;;
30697;SDS011;17448;47.200;10.902;2023-12-28T10:52:44;9.88;;;5.88;;
30697;SDS011;17448;47.200;10.902;2023-12-28T10:55:21;15.73;;;7.93;;
30697;SDS011;17448;47.200;10.902;2023-12-28T10:57:54;6.72;;;4.35;;
30697;SDS011;17448;47.200;10.902;2023-12-28T11:00:25;5.57;;;4.10;;
30697;SDS011;17448;47.200;10.902;2023-12-28T11:02:52;9.18;;;4.70;;
30697;SDS011;17448;47.200;10.902;2023-12-28T11:05:19;9.85;;;5.28;;
30697;SDS011;17448;47.200;10.902;2023-12-28T11:07:47;11.80;;;5.38;;
30697;SDS011;17448;47.200;10.902;2023-12-28T11:10:14;9.38;;;5.22;;
30697;SDS011;17448;47.200;10.902;2023-12-28T11:12:40;14.52;;;6.90;;
30697;SDS011;17448;47.200;10.902;2023-12-28T11:20:32;12.02;;;5.95;;
30697;SDS011;17448;47.200;10.902;2023-12-28T11:22:59;8.88;;;4.85;;
30697;SDS011;17448;47.200;10.902;2023-12-28T11:25:30;7.68;;;4.53;;
30697;SDS011;17448;47.200;10.902;2023-12-28T11:28:20;7.47;;;5.20;;
30697;SDS011;17448;47.200;10.902;2023-12-28T11:30:49;9.32;;;5.35;;
30697;SDS011;17448;47.200;10.902;2023-12-28T11:33:17;10.63;;;4.85;;
30697;SDS011;17448;47.200;10.902;2023-12-28T11:35:44;13.48;;;4.47;;
30697;SDS011;17448;47.200;10.902;2023-12-28T11:38:13;8.48;;;4.25;;
30697;SDS011;17448;47.200;10.902;2023-12-28T11:40:42;8.15;;;4.70;;
30697;SDS011;17448;47.200;10.902;2023-12-28T11:43:15;8.60;;;4.45;;
30697;SDS011;17448;47.200;10.902;2023-12-28T11:48:26;9.18;;;5.97;;
30697;SDS011;17448;47.200;10.902;2023-12-28T11:51:00;11.35;;;5.45;;
30697;SDS011;17448;47.200;10.902;2023-12-28T11:56:02;12.82;;;6.38;;
30697;SDS011;17448;47.200;10.902;2023-12-28T12:07:01;9.00;;;5.57;;
30697;SDS011;17448;47.200;10.902;2023-12-28T12:19:06;11.35;;;4.82;;
30697;SDS011;17448;47.200;10.902;2023-12-28T12:24:09;21.73;;;5.53;;
30697;SDS011;17448;47.200;10.902;2023-12-28T12:26:59;6.47;;;3.63;;
30697;SDS011;17448;47.200;10.902;2023-12-28T12:34:53;10.98;;;4.00;;
30697;SDS011;17448;47.200;10.902;2023-12-28T12:37:19;6.15;;;3.55;;
30697;SDS011;17448;47.200;10.902;2023-12-28T12:42:35;9.18;;;4.93;;
30697;SDS011;17448;47.200;10.902;2023-12-28T12:51:07;9.65;;;3.42;;
30697;SDS011;17448;47.200;10.902;2023-12-28T12:53:34;5.40;;;2.60;;
30697;SDS011;17448;47.200;10.902;2023-12-28T12:56:01;15.38;;;3.38;;
30697;SDS011;17448;47.200;10.902;2023-12-28T12:58:29;6.05;;;2.80;;
30697;SDS011;17448;47.200;10.902;2023-12-28T13:00:56;4.80;;;2.80;;
30697;SDS011;17448;47.200;10.902;2023-12-28T13:03:27;16.08;;;4.70;;
30697;SDS011;17448;47.200;10.902;2023-12-28T13:05:54;9.50;;;4.80;;
30697;SDS011;17448;47.200;10.902;2023-12-28T13:08:21;13.50;;;9.07;;
30697;SDS011;17448;47.200;10.902;2023-12-28T13:10:48;5.93;;;3.25;;
30697;SDS011;17448;47.200;10.902;2023-12-28T13:13:17;9.40;;;3.60;;
30697;SDS011;17448;47.200;10.902;2023-12-28T13:15:44;18.58;;;4.22;;
30697;SDS011;17448;47.200;10.902;2023-12-28T13:18:10;12.15;;;4.18;;
30697;SDS011;17448;47.200;10.902;2023-12-28T13:20:37;11.68;;;5.38;;
30697;SDS011;17448;47.200;10.902;2023-12-28T13:23:04;9.43;;;5.80;;
30697;SDS011;17448;47.200;10.902;2023-12-28T13:25:30;9.48;;;4.30;;
30697;SDS011;17448;47.200;10.902;2023-12-28T13:27:57;12.90;;;5.47;;
30697;SDS011;17448;47.200;10.902;2023-12-28T13:30:23;8.73;;;5.05;;
30697;SDS011;17448;47.200;10.902;2023-12-28T13:32:54;21.52;;;10.98;;
30697;SDS011;17448;47.200;10.902;2023-12-28T13:35:23;16.80;;;7.63;;
30697;SDS011;17448;47.200;10.902;2023-12-28T13:37:50;14.60;;;8.07;;
30697;SDS011;17448;47.200;10.902;2023-12-28T13:40:16;16.23;;;7.80;;
30697;SDS011;17448;47.200;10.902;2023-12-28T13:42:42;20.95;;;7.40;;
30697;SDS011;17448;47.200;10.902;2023-12-28T13:45:09;9.10;;;4.95;;
30697;SDS011;17448;47.200;10.902;2023-12-28T13:47:35;11.00;;;4.50;;
30697;SDS011;17448;47.200;10.902;2023-12-28T14:03:13;11.88;;;5.30;;
30697;SDS011;17448;47.200;10.902;2023-12-28T14:17:50;14.30;;;4.93;;
30697;SDS011;17448;47.200;10.902;2023-12-28T14:20:17;12.85;;;5.38;;
30697;SDS011;17448;47.200;10.902;2023-12-28T14:22:43;17.60;;;8.77;;
30697;SDS011;17448;47.200;10.902;2023-12-28T14:25:09;14.95;;;7.95;;
30697;SDS011;17448;47.200;10.902;2023-12-28T14:27:37;24.65;;;9.65;;
30697;SDS011;17448;47.200;10.902;2023-12-28T14:30:03;21.92;;;9.02;;
30697;SDS011;17448;47.200;10.902;2023-12-28T14:32:31;21.80;;;9.65;;
30697;SDS011;17448;47.200;10.902;2023-12-28T14:34:58;29.38;;;7.65;;
30697;SDS011;17448;47.200;10.902;2023-12-28T14:37:24;20.67;;;5.88;;
30697;SDS011;17448;47.200;10.902;2023-12-28T14:39:50;12.70;;;7.57;;
30697;SDS011;17448;47.200;10.902;2023-12-28T14:47:42;26.95;;;8.35;;
30697;SDS011;17448;47.200;10.902;2023-12-28T14:50:31;19.73;;;7.82;;
30697;SDS011;17448;47.200;10.902;2023-12-28T14:52:57;15.15;;;6.53;;
30697;SDS011;17448;47.200;10.902;2023-12-28T15:14:47;10.00;;;4.78;;
30697;SDS011;17448;47.200;10.902;2023-12-28T15:25:41;7.55;;;4.40;;
30697;SDS011;17448;47.200;10.902;2023-12-28T15:28:07;9.95;;;4.03;;
30697;SDS011;17448;47.200;10.902;2023-12-28T15:30:34;8.35;;;4.70;;
30697;SDS011;17448;47.200;10.902;2023-12-28T15:33:00;11.98;;;7.70;;
30697;SDS011;17448;47.200;10.902;2023-12-28T15:35:27;17.27;;;8.98;;
30697;SDS011;17448;47.200;10.902;2023-12-28T15:37:54;18.40;;;9.68;;
30697;SDS011;17448;47.200;10.902;2023-12-28T15:43:09;42.65;;;10.85;;
30697;SDS011;17448;47.200;10.902;2023-12-28T15:45:36;19.42;;;6.38;;
30697;SDS011;17448;47.200;10.902;2023-12-28T15:48:02;14.23;;;6.13;;
30697;SDS011;17448;47.200;10.902;2023-12-28T15:50:29;19.65;;;5.40;;
30697;SDS011;17448;47.200;10.902;2023-12-28T15:52:55;18.17;;;7.13;;
30697;SDS011;17448;47.200;10.902;2023-12-28T16:09:09;18.45;;;6.78;;
30697;SDS011;17448;47.200;10.902;2023-12-28T16:17:51;14.05;;;5.80;;
30697;SDS011;17448;47.200;10.902;2023-12-28T16:20:23;17.88;;;7.20;;
30697;SDS011;17448;47.200;10.902;2023-12-28T16:22:49;20.42;;;10.55;;
30697;SDS011;17448;47.200;10.902;2023-12-28T16:25:16;26.98;;;11.65;;
30697;SDS011;17448;47.200;10.902;2023-12-28T16:27:42;26.30;;;12.55;;
30697;SDS011;17448;47.200;10.902;2023-12-28T16:30:08;18.48;;;11.57;;
30697;SDS011;17448;47.200;10.902;2023-12-28T16:32:34;17.25;;;10.52;;
30697;SDS011;17448;47.200;10.902;2023-12-28T16:35:01;19.90;;;9.57;;
30697;SDS011;17448;47.200;10.902;2023-12-28T16:37:27;15.35;;;7.82;;